Time;durP1;ratioP1;P1;durP2;ratioP2;P2;SDS_P1;SDS_P2;PMS_P1;PMS_P2;Temp;Humidity;BMP_temperature;BMP_pressure;BME280_temperature;BME280_humidity;BME280_pressure;Samples;Min_cycle;Max_cycle;Signal;HPM_P1;HPM_P2
2022/05/17 00:00:58;;;;;;;;;;;18.20;69.50;;;17.38;65.04;96425.06;4073599;34;19911;-84
2022/05/17 00:03:28;;;;;;;;;;;18.20;69.60;;;17.39;64.98;96432.22;4095743;34;19905;-85
2022/05/17 00:05:56;;;;;;;;;;;18.20;69.40;;;17.38;64.77;96427.81;4073373;34;19915;-85
2022/05/17 00:08:26;;;;;;;;;;;18.20;69.40;;;17.39;64.71;96423.94;4095645;34;20117;-84
2022/05/17 00:10:55;;;;;;;;;;;18.20;69.20;;;17.37;64.72;96415.13;4096499;34;20174;-85
2022/05/17 00:13:23;;;;;;;;;;;18.20;69.20;;;17.38;64.62;96422.28;4073598;34;19905;-85
2022/05/17 00:15:52;;;;;;;;;;;18.20;69.20;;;17.37;64.45;96412.34;4073594;34;19911;-85
2022/05/17 00:18:21;;;;;;;;;;;18.10;69.10;;;17.36;64.70;96421.81;4095394;34;19904;-86
2022/05/17 00:20:51;;;;;;;;;;;18.10;69.20;;;17.36;64.46;96415.44;4073489;34;19904;-85
2022/05/17 00:23:20;;;;;;;;;;;18.10;69.10;;;17.36;64.70;96423.72;4073470;34;19905;-87
2022/05/17 00:25:49;;;;;;;;;;;18.10;69.20;;;17.34;64.58;96418.53;4095633;34;19912;-85
2022/05/17 00:28:21;;;;;;;;;;;18.10;69.10;;;17.35;64.40;96417.41;4073089;34;19912;-85
2022/05/17 00:30:50;;;;;;;;;;;18.10;69.00;;;17.34;64.83;96404.69;4073503;34;19911;-85
2022/05/17 00:33:20;;;;;;;;;;;18.10;69.20;;;17.32;64.62;96402.22;4095645;34;19904;-84
2022/05/17 00:35:51;;;;;;;;;;;18.10;69.10;;;17.33;64.79;96406.63;4075642;34;20023;-85
2022/05/17 00:38:19;;;;;;;;;;;18.10;69.10;;;17.32;64.51;96410.50;4097467;34;19912;-85
2022/05/17 00:40:48;;;;;;;;;;;18.10;69.20;;;17.32;64.41;96404.97;4075666;34;20212;-85
2022/05/17 00:47:19;;;;;;;;;;;18.10;69.00;;;17.31;64.25;96402.53;4096544;34;20243;-85
2022/05/17 00:49:52;;;;;;;;;;;18.10;68.90;;;17.31;64.38;96391.47;4075610;34;20170;-85
2022/05/17 00:52:26;;;;;;;;;;;18.10;68.90;;;17.30;64.26;96396.16;4075455;34;19927;-87
2022/05/17 00:54:58;;;;;;;;;;;18.10;68.90;;;17.29;64.41;96397.31;4075562;34;19912;-86
2022/05/17 00:57:29;;;;;;;;;;;18.10;68.80;;;17.30;64.15;96392.59;4097146;34;20120;-86
2022/05/17 01:00:01;;;;;;;;;;;18.10;68.70;;;17.30;64.12;96400.88;4075336;34;20144;-86
2022/05/17 01:02:30;;;;;;;;;;;18.10;68.80;;;17.29;64.24;96400.09;4075659;34;20237;-86
2022/05/17 01:04:59;;;;;;;;;;;18.00;68.80;;;17.27;64.29;96396.81;4075537;34;20159;-86
2022/05/17 01:07:33;;;;;;;;;;;18.10;68.80;;;17.26;64.23;96408.16;4075047;34;19905;-86
2022/05/17 01:10:02;;;;;;;;;;;18.10;68.80;;;17.28;64.06;96408.69;4075424;34;19916;-86
2022/05/17 01:12:31;;;;;;;;;;;18.10;68.70;;;17.26;63.76;96403.47;4075328;34;19905;-86
2022/05/17 01:14:58;;;;;;;;;;;18.00;68.50;;;17.26;64.06;96399.84;4075347;34;20033;-85
2022/05/17 01:17:28;;;;;;;;;;;18.10;68.70;;;17.25;64.22;96399.06;4096997;34;19905;-86
2022/05/17 01:19:57;;;;;;;;;;;18.00;68.50;;;17.26;63.94;96399.84;4075248;34;20467;-85
2022/05/17 01:22:27;;;;;;;;;;;18.00;68.50;;;17.24;64.07;96396.56;4075361;34;20127;-86
2022/05/17 01:24:55;;;;;;;;;;;18.10;68.60;;;17.23;63.99;96383.91;4075272;34;19909;-86
2022/05/17 01:27:28;;;;;;;;;;;18.00;68.50;;;17.23;63.92;96392.19;4074730;34;20182;-86
2022/05/17 01:29:57;;;;;;;;;;;18.00;68.40;;;17.23;64.00;96389.44;4075082;34;19905;-85
2022/05/17 01:32:25;;;;;;;;;;;18.00;68.40;;;17.22;63.99;96385.84;4075124;34;20438;-85
2022/05/17 01:34:54;;;;;;;;;;;18.00;68.40;;;17.21;63.92;96384.19;4097124;34;19915;-85
2022/05/17 01:37:22;;;;;;;;;;;18.00;68.40;;;17.22;63.83;96388.59;4074807;34;19927;-85
2022/05/17 01:39:52;;;;;;;;;;;18.00;68.30;;;17.19;63.89;96389.22;4075098;34;20163;-85
2022/05/17 01:42:21;;;;;;;;;;;18.00;68.30;;;17.20;63.88;96390.03;4074988;34;20460;-85
2022/05/17 01:44:49;;;;;;;;;;;18.00;68.30;;;17.20;63.78;96387.28;4075042;34;19912;-85
2022/05/17 01:47:18;;;;;;;;;;;18.00;68.20;;;17.19;63.88;96383.69;4074008;34;20358;-85
2022/05/17 01:49:47;;;;;;;;;;;18.00;68.30;;;17.19;63.71;96383.69;4074718;34;20083;-83
2022/05/17 01:52:15;;;;;;;;;;;18.00;68.20;;;17.17;63.89;96383.16;4074709;34;19904;-85
2022/05/17 01:54:44;;;;;;;;;;;18.00;68.30;;;17.19;63.85;96386.44;4075105;34;19904;-85
2022/05/17 01:57:14;;;;;;;;;;;17.90;68.30;;;17.18;64.17;96390.34;4074349;34;19913;-85
2022/05/17 01:59:42;;;;;;;;;;;17.90;68.20;;;17.17;63.76;96392.28;4074755;34;20002;-84
2022/05/17 02:02:11;;;;;;;;;;;17.90;68.20;;;17.17;63.74;96392.28;4096988;34;19978;-85
2022/05/17 02:04:39;;;;;;;;;;;17.90;68.20;;;17.15;63.69;96391.78;4074877;34;20190;-85
2022/05/17 02:07:08;;;;;;;;;;;17.90;68.10;;;17.16;63.69;96390.66;4074392;34;20130;-85
2022/05/17 02:09:37;;;;;;;;;;;17.90;68.10;;;17.15;63.66;96389.00;4074912;34;19904;-85
2022/05/17 02:12:08;;;;;;;;;;;17.90;68.10;;;17.15;63.85;96380.72;4096591;34;19905;-84
2022/05/17 02:14:38;;;;;;;;;;;17.90;68.10;;;17.14;63.52;96375.50;4074876;34;19904;-85
2022/05/17 02:17:06;;;;;;;;;;;17.90;68.10;;;17.14;63.75;96386.56;4097035;34;20061;-85
2022/05/17 02:19:35;;;;;;;;;;;17.90;68.10;;;17.12;63.59;96388.81;4074584;34;19911;-84
2022/05/17 02:22:04;;;;;;;;;;;17.90;68.10;;;17.13;63.78;96382.97;4074625;34;19912;-85
2022/05/17 02:24:33;;;;;;;;;;;17.90;68.10;;;17.12;63.85;96378.56;4074651;34;20076;-85
2022/05/17 02:27:01;;;;;;;;;;;17.90;68.10;;;17.11;63.70;96376.91;4096126;34;20048;-85
2022/05/17 02:29:30;;;;;;;;;;;17.90;68.20;;;17.11;63.54;96378.88;4074443;34;19904;-85
2022/05/17 02:32:01;;;;;;;;;;;17.90;68.00;;;17.11;63.73;96382.44;4096472;34;19912;-85
2022/05/17 02:34:31;;;;;;;;;;;17.90;68.00;;;17.10;63.49;96375.31;4074423;34;19926;-85
2022/05/17 02:37:00;;;;;;;;;;;17.90;68.00;;;17.09;63.65;96373.66;4073966;34;20064;-85
2022/05/17 02:39:28;;;;;;;;;;;17.90;68.00;;;17.08;63.63;96371.19;4074452;34;20142;-86
2022/05/17 02:41:57;;;;;;;;;;;17.90;68.10;;;17.07;63.41;96375.91;4074440;34;19955;-85
2022/05/17 02:44:26;;;;;;;;;;;17.90;68.00;;;17.09;63.61;96384.72;4074494;34;20005;-84
2022/05/17 02:46:55;;;;;;;;;;;17.90;68.00;;;17.07;63.27;96378.69;4073945;34;19904;-85
2022/05/17 02:49:25;;;;;;;;;;;17.80;67.90;;;17.08;63.52;96382.25;4074249;34;19905;-85
2022/05/17 02:51:54;;;;;;;;;;;17.80;67.80;;;17.06;63.45;96377.03;4074460;34;20405;-85
2022/05/17 02:54:23;;;;;;;;;;;17.80;67.80;;;17.07;63.44;96381.44;4073391;34;19929;-85
2022/05/17 02:56:51;;;;;;;;;;;17.90;67.90;;;17.07;63.49;96377.84;4073210;34;20014;-85
2022/05/17 02:59:20;;;;;;;;;;;17.80;67.80;;;17.07;63.45;96386.97;4074187;34;20117;-84
2022/05/17 03:01:49;;;;;;;;;;;17.80;67.70;;;17.07;63.42;96378.69;4096323;34;19913;-85
2022/05/17 03:04:17;;;;;;;;;;;17.80;67.80;;;17.07;63.38;96375.09;4097079;34;19968;-85
2022/05/17 03:06:47;;;;;;;;;;;17.90;67.80;;;17.06;63.59;96381.75;4073776;34;20032;-85
2022/05/17 03:09:16;;;;;;;;;;;17.80;67.90;;;17.06;63.39;96377.03;4074088;34;19912;-85
2022/05/17 03:11:44;;;;;;;;;;;17.80;67.80;;;17.06;63.21;96378.97;4074253;34;20054;-85
2022/05/17 03:14:16;;;;;;;;;;;17.80;67.80;;;17.04;63.45;96376.53;4097196;34;20201;-84
2022/05/17 03:16:45;;;;;;;;;;;17.80;67.80;;;17.06;63.21;96374.28;4073678;34;19912;-84
2022/05/17 03:19:14;;;;;;;;;;;17.80;67.70;;;17.06;63.38;96374.28;4074084;34;19913;-84
2022/05/17 03:21:42;;;;;;;;;;;17.80;67.60;;;17.07;63.26;96375.09;4074216;34;20112;-86
2022/05/17 03:24:15;;;;;;;;;;;17.80;67.60;;;17.07;63.04;96386.97;4096143;34;19970;-85
2022/05/17 03:27:24;;;;;;;;;;;17.90;67.60;;;17.08;62.83;96382.25;4073462;34;20099;-85
2022/05/17 03:29:53;;;;;;;;;;;17.90;67.50;;;17.08;63.16;96388.63;4073839;34;20164;-84
2022/05/17 03:32:22;;;;;;;;;;;17.90;67.40;;;17.09;63.01;96381.97;4073918;34;20089;-85
2022/05/17 03:34:51;;;;;;;;;;;17.90;67.40;;;17.09;62.94;96376.44;4095804;34;20129;-85
2022/05/17 03:37:19;;;;;;;;;;;17.90;67.30;;;17.10;62.59;96383.59;4073504;34;20275;-84
2022/05/17 03:39:52;;;;;;;;;;;17.90;67.30;;;17.08;63.01;96383.09;4074193;34;20285;-85
2022/05/17 03:42:20;;;;;;;;;;;17.90;67.20;;;17.08;62.90;96383.09;4096025;34;20140;-85
2022/05/17 03:44:49;;;;;;;;;;;17.90;67.20;;;17.09;62.77;96373.66;4073972;34;19946;-85
2022/05/17 03:47:17;;;;;;;;;;;17.90;67.20;;;17.11;62.71;96382.44;4073405;34;19911;-84
2022/05/17 03:49:47;;;;;;;;;;;17.90;67.00;;;17.12;62.66;96384.09;4095637;34;19975;-85
2022/05/17 03:52:16;;;;;;;;;;;17.90;66.90;;;17.14;62.83;96386.56;4073815;34;20170;-86
2022/05/17 03:54:44;;;;;;;;;;;17.90;67.10;;;17.16;62.86;96389.84;4074110;34;19905;-85
2022/05/17 03:57:14;;;;;;;;;;;17.90;67.20;;;17.17;62.74;96384.00;4051635;34;19905;-85
2022/05/17 03:59:44;;;;;;;;;;;17.90;67.10;;;17.18;62.85;96382.88;4051848;34;20126;-86
2022/05/17 04:02:12;;;;;;;;;;;18.00;67.10;;;17.21;62.58;96380.63;4095960;34;20126;-84
2022/05/17 04:04:41;;;;;;;;;;;18.00;67.10;;;17.24;62.94;96388.28;4073763;34;19905;-85
2022/05/17 04:07:11;;;;;;;;;;;18.10;67.30;;;17.23;63.19;96384.72;4051476;34;19911;-85
2022/05/17 04:09:39;;;;;;;;;;;18.10;67.60;;;17.27;63.22;96395.97;4074694;34;20131;-85
2022/05/17 04:12:10;;;;;;;;;;;18.10;67.50;;;17.29;63.47;96388.19;4098976;34;20108;-85
2022/05/17 04:14:40;;;;;;;;;;;18.10;67.80;;;17.31;63.68;96385.94;4076005;34;19905;-85
2022/05/17 04:17:09;;;;;;;;;;;18.10;68.10;;;17.32;63.87;96382.03;4075381;34;19912;-85
2022/05/17 04:19:38;;;;;;;;;;;18.10;68.30;;;17.34;63.78;96390.84;4054098;34;19912;-84
2022/05/17 04:22:08;;;;;;;;;;;18.10;68.30;;;17.36;63.88;96387.75;4054062;34;20193;-85
2022/05/17 04:24:37;;;;;;;;;;;18.20;68.30;;;17.37;64.04;96387.44;4054095;34;20026;-85
2022/05/17 04:27:06;;;;;;;;;;;18.20;68.40;;;17.39;63.85;96390.72;4075316;34;20275;-85
2022/05/17 04:29:35;;;;;;;;;;;18.20;68.20;;;17.40;64.24;96389.59;4075713;34;20354;-85
2022/05/17 04:32:07;;;;;;;;;;;18.20;68.60;;;17.43;64.15;96388.97;4075790;34;19911;-85
2022/05/17 04:34:36;;;;;;;;;;;18.20;68.60;;;17.46;64.25;96396.66;4075799;34;20067;-85
2022/05/17 04:37:05;;;;;;;;;;;18.20;68.80;;;17.47;64.45;96392.78;4075390;34;19905;-85
2022/05/17 04:39:34;;;;;;;;;;;18.30;68.90;;;17.49;64.30;96398.78;4097788;34;19911;-86
2022/05/17 04:42:03;;;;;;;;;;;18.30;68.80;;;17.52;63.94;96396.53;4075766;34;20146;-85
2022/05/17 04:44:32;;;;;;;;;;;18.30;68.30;;;17.54;64.27;96400.66;4075790;34;19961;-85
2022/05/17 04:47:00;;;;;;;;;;;18.40;68.70;;;17.54;63.90;96399.81;4075130;34;20103;-85
2022/05/17 04:49:31;;;;;;;;;;;18.30;68.20;;;17.57;63.29;96404.75;4053808;34;20089;-85
2022/05/17 04:51:59;;;;;;;;;;;18.40;67.50;;;17.60;63.79;96404.13;4075584;34;20400;-85
2022/05/17 04:54:29;;;;;;;;;;;18.40;68.00;;;17.64;63.25;96405.13;4053734;34;20140;-85
2022/05/17 04:57:23;;;;;;;;;;;18.50;67.60;;;17.66;63.31;96402.88;4075053;34;19915;-85
2022/05/17 04:59:51;;;;;;;;;;;18.50;68.00;;;17.69;63.56;96401.41;4097533;34;19919;-85
2022/05/17 05:02:20;;;;;;;;;;;18.50;68.00;;;17.69;63.78;96407.78;4053711;34;19993;-85
2022/05/17 05:05:18;;;;;;;;;;;18.50;68.20;;;17.72;63.91;96407.16;4098446;34;19961;-85
2022/05/17 05:07:47;;;;;;;;;;;18.50;68.20;;;17.73;64.00;96411.59;4074977;34;20114;-85
2022/05/17 05:10:42;;;;;;;;;;;18.50;68.30;;;17.73;64.10;96413.50;4053738;34;20052;-86
2022/05/17 05:13:13;;;;;;;;;;;18.50;68.40;;;17.73;64.23;96406.03;4075390;34;20137;-86
2022/05/17 05:15:42;;;;;;;;;;;18.50;68.60;;;17.74;64.19;96410.44;4075353;34;19905;-86
2022/05/17 05:18:10;;;;;;;;;;;18.50;68.40;;;17.74;64.23;96415.16;4053106;34;20214;-86
2022/05/17 05:20:41;;;;;;;;;;;18.50;68.50;;;17.74;64.19;96406.84;4053383;34;19919;-86
2022/05/17 05:23:09;;;;;;;;;;;18.60;68.50;;;17.75;64.23;96406.53;4075306;34;19912;-86
2022/05/17 05:25:59;;;;;;;;;;;18.60;68.50;;;17.77;64.19;96409.81;4053548;34;19911;-85
2022/05/17 05:28:30;;;;;;;;;;;18.60;68.40;;;17.79;63.98;96417.81;4053565;34;19997;-86
2022/05/17 05:30:58;;;;;;;;;;;18.60;68.30;;;17.81;63.62;96409.19;4053561;34;19911;-85
2022/05/17 05:33:29;;;;;;;;;;;18.60;68.10;;;17.82;63.79;96408.06;4075235;34;20405;-85
2022/05/17 05:36:00;;;;;;;;;;;18.60;68.00;;;17.84;64.04;96398.28;4053199;34;20139;-85
2022/05/17 05:38:29;;;;;;;;;;;18.60;68.10;;;17.87;63.88;96414.28;4075248;34;19940;-85
2022/05/17 05:40:58;;;;;;;;;;;18.70;68.00;;;17.89;63.75;96412.03;4098140;34;19904;-86
2022/05/17 05:43:26;;;;;;;;;;;18.70;68.00;;;17.91;64.05;96404.25;4053482;34;19911;-85
2022/05/17 05:45:55;;;;;;;;;;;18.70;68.10;;;17.94;63.73;96413.88;4053173;34;19904;-85
2022/05/17 05:48:23;;;;;;;;;;;18.70;68.10;;;17.97;63.94;96399.44;4053315;34;20262;-86
2022/05/17 05:50:53;;;;;;;;;;;18.80;68.20;;;17.98;63.86;96398.28;4097110;34;19970;-84
2022/05/17 05:53:23;;;;;;;;;;;18.80;68.10;;;18.03;63.83;96389.84;4075009;34;20020;-86
2022/05/17 05:55:57;;;;;;;;;;;18.80;68.10;;;18.05;63.68;96395.91;4074996;34;20024;-85
2022/05/17 05:58:26;;;;;;;;;;;18.90;68.30;;;18.11;63.71;96395.78;4096834;34;20220;-85
2022/05/17 06:00:54;;;;;;;;;;;18.90;68.20;;;18.14;63.76;96392.38;4053128;34;20135;-87
2022/05/17 06:03:24;;;;;;;;;;;18.90;68.20;;;18.16;63.69;96392.88;4075080;34;19909;-86
2022/05/17 06:05:52;;;;;;;;;;;18.90;68.10;;;18.17;63.71;96395.34;4074881;34;20166;-85
2022/05/17 06:09:19;;;;;;;;;;;18.90;68.00;;;18.19;64.30;96386.69;4074584;34;19904;-85
2022/05/17 06:11:47;;;;;;;;;;;19.00;67.90;;;18.21;63.53;96387.22;4053023;34;20106;-85
2022/05/17 06:14:16;;;;;;;;;;;19.00;67.90;;;18.22;63.54;96378.56;4097774;34;19904;-86
2022/05/17 06:16:47;;;;;;;;;;;19.00;67.90;;;18.22;63.48;96370.25;4052641;34;20156;-86
2022/05/17 06:19:16;;;;;;;;;;;19.00;67.80;;;18.22;63.39;96370.25;4074823;34;19904;-86
2022/05/17 06:21:45;;;;;;;;;;;19.00;67.80;;;18.24;63.28;96368.00;4074819;34;20143;-86
2022/05/17 06:24:13;;;;;;;;;;;19.00;67.70;;;18.24;63.49;96372.72;4096777;34;19904;-85
2022/05/17 06:26:43;;;;;;;;;;;19.00;67.70;;;18.25;63.60;96374.38;4052673;34;20122;-85
2022/05/17 06:29:12;;;;;;;;;;;19.00;67.80;;;18.27;63.56;96376.81;4074524;34;20075;-86
2022/05/17 06:32:10;;;;;;;;;;;19.00;67.90;;;18.30;63.53;96376.19;4096183;34;20124;-86
2022/05/17 06:35:21;;;;;;;;;;;19.10;67.90;;;18.31;63.41;96377.81;4052839;34;20143;-85
2022/05/17 06:37:50;;;;;;;;;;;19.10;67.90;;;18.33;63.33;96375.56;4074054;34;20041;-86
2022/05/17 06:40:43;;;;;;;;;;;19.10;67.80;;;18.33;63.56;96373.59;4090184;34;20024;-86
2022/05/17 06:43:17;;;;;;;;;;;19.10;67.80;;;18.33;63.49;96375.56;4074660;34;20156;-85
2022/05/17 06:45:46;;;;;;;;;;;19.10;67.70;;;18.34;63.33;96369.69;4074456;34;19946;-85
2022/05/17 06:48:14;;;;;;;;;;;19.10;67.70;;;18.36;63.43;96364.66;4073719;34;20141;-85
2022/05/17 06:50:46;;;;;;;;;;;19.10;67.70;;;18.40;63.29;96365.63;4074202;34;19911;-85
2022/05/17 06:53:14;;;;;;;;;;;19.20;67.60;;;18.41;63.07;96360.91;4074140;34;19905;-86
2022/05/17 06:55:43;;;;;;;;;;;19.20;67.60;;;18.46;63.11;96368.28;4096501;34;19905;-86
2022/05/17 06:58:12;;;;;;;;;;;19.20;67.50;;;18.46;63.24;96357.19;4095872;34;20058;-85
2022/05/17 07:00:42;;;;;;;;;;;19.20;67.50;;;18.51;63.18;96354.28;4096187;34;19904;-86
2022/05/17 07:03:10;;;;;;;;;;;19.30;67.50;;;18.54;62.93;96348.94;4073504;34;19904;-87
2022/05/17 07:05:39;;;;;;;;;;;19.30;67.40;;;18.58;62.79;96348.28;4096228;34;19909;-85
2022/05/17 07:08:08;;;;;;;;;;;19.30;67.30;;;18.63;62.54;96351.75;4073857;34;20324;-86
2022/05/17 07:13:23;;;;;;;;;;;19.30;67.00;;;18.65;62.79;96346.66;4074230;34;20144;-85
2022/05/17 07:15:53;;;;;;;;;;;19.40;67.00;;;18.68;62.37;96354.34;4073893;34;19904;-85
2022/05/17 07:18:23;;;;;;;;;;;19.40;67.00;;;18.70;62.52;96341.00;4073909;34;20151;-85
2022/05/17 07:20:52;;;;;;;;;;;19.40;66.80;;;18.71;62.49;96348.19;4095980;34;19904;-85
2022/05/17 07:23:24;;;;;;;;;;;19.40;66.80;;;18.71;62.62;96342.63;4073955;34;20252;-86
2022/05/17 07:25:53;;;;;;;;;;;19.40;66.80;;;18.72;62.30;96340.66;4081933;34;20014;-87
2022/05/17 07:28:23;;;;;;;;;;;19.40;66.60;;;18.68;62.52;96336.91;4095860;34;19911;-86
2022/05/17 07:30:53;;;;;;;;;;;19.40;66.70;;;18.69;62.49;96333.00;4052117;34;20219;-84
2022/05/17 07:33:22;;;;;;;;;;;19.40;66.80;;;18.68;62.67;96334.94;4052430;34;20076;-84
2022/05/17 07:35:50;;;;;;;;;;;19.40;66.80;;;18.65;62.53;96329.22;4096007;34;20295;-85
2022/05/17 07:38:19;;;;;;;;;;;19.40;66.90;;;18.65;62.71;96332.81;4073712;34;19912;-85
2022/05/17 07:40:49;;;;;;;;;;;19.40;66.90;;;18.64;62.88;96331.19;4052010;34;19905;-85
2022/05/17 07:43:18;;;;;;;;;;;19.40;67.10;;;18.63;62.90;96329.56;4073682;34;20085;-86
2022/05/17 07:45:49;;;;;;;;;;;19.40;67.20;;;18.64;63.07;96331.19;4073797;34;19911;-86
2022/05/17 07:48:23;;;;;;;;;;;19.40;67.20;;;18.62;62.92;96327.91;4073846;34;20068;-86
2022/05/17 07:50:52;;;;;;;;;;;19.40;67.20;;;18.60;62.94;96318.25;4073770;34;19911;-86
2022/05/17 07:53:21;;;;;;;;;;;19.40;67.20;;;18.58;62.90;96321.38;4073826;34;20224;-86
2022/05/17 07:55:51;;;;;;;;;;;19.30;67.30;;;18.56;63.01;96312.56;4052148;34;20171;-85
2022/05/17 07:58:20;;;;;;;;;;;19.30;67.30;;;18.55;63.44;96319.22;4095515;34;19905;-86
2022/05/17 08:00:49;;;;;;;;;;;19.30;67.50;;;18.55;63.25;96319.22;4073844;34;20107;-86
2022/05/17 08:03:21;;;;;;;;;;;19.30;67.60;;;18.53;63.02;96313.19;4052194;34;19988;-87
2022/05/17 08:05:51;;;;;;;;;;;19.30;67.60;;;18.51;63.42;96315.47;4051996;34;19911;-85
2022/05/17 08:08:20;;;;;;;;;;;19.30;67.60;;;18.50;63.38;96319.38;4073674;34;20156;-86
2022/05/17 08:10:48;;;;;;;;;;;19.30;67.70;;;18.47;63.41;96306.16;4051916;34;20165;-87
2022/05/17 08:13:18;;;;;;;;;;;19.20;67.70;;;18.47;63.75;96314.47;4052196;34;19911;-86
2022/05/17 08:15:48;;;;;;;;;;;19.20;67.80;;;18.46;63.66;96318.38;4096616;34;19904;-86
2022/05/17 08:18:17;;;;;;;;;;;19.20;67.90;;;18.48;63.63;96321.66;4073370;34;19912;-85
2022/05/17 08:20:48;;;;;;;;;;;19.30;68.00;;;18.49;63.38;96314.97;4073857;34;19905;-86
2022/05/17 08:23:17;;;;;;;;;;;19.30;68.00;;;18.47;63.49;96309.72;4073588;34;20136;-85
2022/05/17 08:28:33;;;;;;;;;;;19.20;68.00;;;18.47;63.52;96306.97;4051865;34;20116;-87
2022/05/17 08:31:02;;;;;;;;;;;19.30;68.00;;;18.47;63.67;96314.47;4073548;34;19996;-85
2022/05/17 08:33:31;;;;;;;;;;;19.20;67.90;;;18.46;63.78;96308.09;4095572;34;19970;-86
2022/05/17 08:36:03;;;;;;;;;;;19.30;68.10;;;18.45;63.56;96302.88;4068843;35;19905;-86
2022/05/17 08:38:35;;;;;;;;;;;19.20;68.00;;;18.44;63.88;96295.72;4047454;35;20144;-86
2022/05/17 08:41:12;;;;;;;;;;;19.20;68.10;;;18.41;63.91;96297.16;4047262;35;20088;-87
2022/05/17 08:43:50;;;;;;;;;;;19.20;68.20;;;18.42;63.99;96289.66;4069201;35;19905;-87
2022/05/17 08:46:44;;;;;;;;;;;19.20;68.20;;;18.41;63.91;96294.41;4047129;35;19905;-87
2022/05/17 08:49:20;;;;;;;;;;;19.20;68.30;;;18.40;63.89;96299.09;4068830;35;19905;-86
2022/05/17 08:51:53;;;;;;;;;;;19.20;68.30;;;18.42;64.05;96297.97;4069116;35;20246;-86
2022/05/17 08:54:25;;;;;;;;;;;19.20;68.30;;;18.41;64.09;96288.84;4069187;34;19905;-86
2022/05/17 08:56:57;;;;;;;;;;;19.20;68.30;;;18.42;64.05;96298.81;4070642;34;20124;-85
2022/05/17 08:59:26;;;;;;;;;;;19.20;68.30;;;18.42;63.96;96297.97;4071236;34;19905;-86
2022/05/17 09:02:00;;;;;;;;;;;19.20;68.20;;;18.40;63.86;96298.31;4049501;34;19905;-86
2022/05/17 09:04:59;;;;;;;;;;;19.20;68.40;;;18.41;64.08;96294.41;4071251;34;19916;-86
2022/05/17 09:07:32;;;;;;;;;;;19.20;68.30;;;18.40;63.85;96299.09;4070398;34;20005;-86
2022/05/17 09:10:44;;;;;;;;;;;19.20;68.40;;;18.42;63.89;96295.19;4071220;34;19905;-86
2022/05/17 09:13:16;;;;;;;;;;;19.20;68.40;;;18.43;64.05;96300.44;4049404;34;19998;-86
2022/05/17 09:15:45;;;;;;;;;;;19.20;68.40;;;18.44;63.86;96292.94;4049301;34;19966;-86
2022/05/17 09:18:17;;;;;;;;;;;19.20;68.30;;;18.43;63.84;96294.06;4094400;34;20123;-86
2022/05/17 09:20:46;;;;;;;;;;;19.20;68.40;;;18.45;63.94;96300.13;4075489;34;19905;-85
2022/05/17 09:23:16;;;;;;;;;;;19.20;68.40;;;18.40;64.14;96288.03;4075328;34;20116;-86
2022/05/17 09:26:03;;;;;;;;;;;19.20;68.40;;;18.45;63.84;96289.03;4075517;34;19957;-86
2022/05/17 09:28:48;;;;;;;;;;;19.20;68.30;;;18.44;63.91;96276.31;4075305;34;19905;-86
2022/05/17 09:31:27;;;;;;;;;;;19.20;68.40;;;18.44;63.75;96277.13;4075331;34;20168;-85
2022/05/17 09:33:57;;;;;;;;;;;19.20;68.40;;;18.42;64.10;96278.56;4075424;34;19904;-86
2022/05/17 09:36:27;;;;;;;;;;;19.20;68.30;;;18.42;64.06;96275.78;4096734;34;20128;-86
2022/05/17 09:38:58;;;;;;;;;;;19.20;68.40;;;18.45;63.97;96286.25;4075382;34;20126;-86
2022/05/17 09:41:36;;;;;;;;;;;19.20;68.40;;;18.46;63.94;96274.03;4075182;34;20223;-85
2022/05/17 09:44:06;;;;;;;;;;;19.20;68.40;;;18.46;63.87;96282.34;4075195;34;20340;-86
2022/05/17 09:46:35;;;;;;;;;;;19.20;68.40;;;18.46;63.86;96274.03;4074725;34;19905;-87
2022/05/17 09:54:44;;;;;;;;;;;19.20;68.40;;;18.45;64.14;96264.91;4075229;34;20024;-87
2022/05/17 09:57:16;;;;;;;;;;;19.20;68.40;;;18.46;63.95;96268.50;4075460;34;20241;-86
2022/05/17 09:59:44;;;;;;;;;;;19.20;68.40;;;18.46;63.96;96260.16;4075006;34;20123;-86
2022/05/17 10:02:41;;;;;;;;;;;19.20;68.40;;;18.47;64.09;96259.03;4075140;34;20193;-87
2022/05/17 10:05:20;;;;;;;;;;;19.20;68.40;;;18.46;64.14;96254.63;4096995;34;19922;-86
2022/05/17 10:07:55;;;;;;;;;;;19.20;68.50;;;18.46;64.09;96252.66;4073830;34;20161;-87
2022/05/17 10:10:36;;;;;;;;;;;19.20;68.40;;;18.48;64.28;96255.13;4096991;34;20224;-87
2022/05/17 10:13:18;;;;;;;;;;;19.20;68.40;;;18.46;64.17;96255.44;4074943;34;20135;-87
2022/05/17 10:15:56;;;;;;;;;;;19.20;68.40;;;18.46;64.13;96249.88;4074958;34;20016;-89
2022/05/17 10:18:35;;;;;;;;;;;19.30;68.60;;;18.47;64.08;96250.72;4096717;34;19993;-87
2022/05/17 10:21:10;;;;;;;;;;;19.20;68.40;;;18.47;63.91;96242.41;4074821;34;19904;-87
2022/05/17 10:23:45;;;;;;;;;;;19.20;68.40;;;18.48;64.20;96238.50;4097964;34;19944;-87
2022/05/17 10:26:18;;;;;;;;;;;19.20;68.40;;;18.47;64.24;96245.97;4096446;34;19932;-87
2022/05/17 10:28:50;;;;;;;;;;;19.30;68.50;;;18.46;64.03;96240.78;4074865;34;19905;-87
2022/05/17 10:31:23;;;;;;;;;;;19.30;68.50;;;18.49;64.05;96240.13;4074713;34;19905;-86
2022/05/17 10:34:13;;;;;;;;;;;19.20;68.40;;;18.48;64.14;96238.50;4074913;34;19905;-86
2022/05/17 10:36:43;;;;;;;;;;;19.30;68.50;;;18.48;64.20;96241.28;4096281;34;20102;-87
2022/05/17 10:39:26;;;;;;;;;;;19.30;68.50;;;18.48;64.40;96241.28;4074701;34;19904;-87
2022/05/17 10:41:56;;;;;;;;;;;19.30;68.50;;;18.47;64.24;96242.41;4074593;34;20100;-87
2022/05/17 10:44:25;;;;;;;;;;;19.20;68.40;;;18.48;64.04;96238.50;4096653;34;20224;-86
2022/05/17 10:46:56;;;;;;;;;;;19.30;68.50;;;18.46;63.81;96235.22;4074251;34;19912;-86
2022/05/17 10:49:30;;;;;;;;;;;19.30;68.60;;;18.48;64.26;96238.50;4074493;34;19912;-86
2022/05/17 10:52:03;;;;;;;;;;;19.30;68.60;;;18.46;64.25;96229.69;4096598;34;19971;-87
2022/05/17 10:54:43;;;;;;;;;;;19.20;68.40;;;18.46;64.07;96238.81;4074376;34;20034;-88
2022/05/17 10:57:19;;;;;;;;;;;19.20;68.50;;;18.47;64.08;96243.22;4095788;34;19904;-87
2022/05/17 10:59:54;;;;;;;;;;;19.30;68.60;;;18.47;64.39;96245.19;4070099;34;20175;-86
2022/05/17 11:02:36;;;;;;;;;;;19.20;68.50;;;18.46;64.32;96240.78;4048290;34;20367;-87
2022/05/17 11:05:15;;;;;;;;;;;19.30;68.70;;;18.44;64.49;96238.34;4070231;34;20306;-87
2022/05/17 11:07:52;;;;;;;;;;;19.20;68.60;;;18.42;64.29;96231.44;4047853;34;19913;-87
2022/05/17 11:10:47;;;;;;;;;;;19.20;68.70;;;18.40;64.52;96229.00;4052502;34;19912;-87
2022/05/17 11:13:23;;;;;;;;;;;19.20;68.70;;;18.40;64.34;96226.25;4074232;34;20107;-87
2022/05/17 11:15:55;;;;;;;;;;;19.20;68.70;;;18.42;64.31;96225.91;4074365;34;19904;-86
2022/05/17 11:18:28;;;;;;;;;;;19.20;68.80;;;18.39;64.46;96222.66;4095838;34;19905;-86
2022/05/17 11:20:59;;;;;;;;;;;19.20;68.80;;;18.39;64.44;96219.91;4096365;34;19904;-87
2022/05/17 11:23:45;;;;;;;;;;;19.20;69.00;;;18.38;64.62;96225.75;4074292;34;19986;-86
2022/05/17 11:27:10;;;;;;;;;;;19.20;68.90;;;18.36;64.71;96219.69;4095922;34;19922;-87
2022/05/17 11:30:18;;;;;;;;;;;19.20;68.90;;;18.36;64.70;96209.44;4056692;34;20212;-87
2022/05/17 11:33:30;;;;;;;;;;;19.10;69.00;;;18.36;64.62;96214.16;4096296;34;19905;-87
2022/05/17 11:35:59;;;;;;;;;;;19.10;69.10;;;18.32;64.53;96213.97;4074056;34;19905;-87
2022/05/17 11:38:52;;;;;;;;;;;19.10;69.20;;;18.32;64.80;96200.13;4073975;34;19924;-87
2022/05/17 11:41:24;;;;;;;;;;;19.10;69.20;;;18.31;64.76;96201.25;4052346;34;19920;-87
2022/05/17 11:44:21;;;;;;;;;;;19.10;69.20;;;18.31;64.72;96198.50;4052467;34;20200;-87
2022/05/17 11:46:58;;;;;;;;;;;19.10;69.30;;;18.32;64.75;96199.31;4051646;34;20099;-86
2022/05/17 11:49:46;;;;;;;;;;;19.10;69.30;;;18.31;64.82;96204.03;4073432;34;19904;-87
2022/05/17 11:52:33;;;;;;;;;;;19.10;69.40;;;18.31;64.98;96195.72;4073874;34;19912;-86
2022/05/17 11:55:02;;;;;;;;;;;19.10;69.40;;;18.30;65.03;96196.84;4096743;34;19911;-86
2022/05/17 11:58:04;;;;;;;;;;;19.10;69.50;;;18.29;64.98;96192.44;4073318;34;20124;-87